sensor_id;sensor_type;location;lat;lon;timestamp;P1;durP1;ratioP1;P2;durP2;ratioP2
11548;SDS011;61444;59.472;18.306;2023-03-11T00:01:22;6.77;;;3.63;;
11548;SDS011;61444;59.472;18.306;2023-03-11T00:03:31;6.70;;;3.50;;
11548;SDS011;61444;59.472;18.306;2023-03-11T00:05:41;6.77;;;4.10;;
11548;SDS011;61444;59.472;18.306;2023-03-11T00:07:51;8.27;;;3.87;;
11548;SDS011;61444;59.472;18.306;2023-03-11T00:10:00;9.90;;;4.03;;
11548;SDS011;61444;59.472;18.306;2023-03-11T00:12:10;7.37;;;3.70;;
11548;SDS011;61444;59.472;18.306;2023-03-11T00:14:18;7.10;;;3.80;;
11548;SDS011;61444;59.472;18.306;2023-03-11T00:16:29;8.07;;;3.80;;
11548;SDS011;61444;59.472;18.306;2023-03-11T00:18:38;7.17;;;3.90;;
11548;SDS011;61444;59.472;18.306;2023-03-11T00:20:47;6.10;;;3.40;;
11548;SDS011;61444;59.472;18.306;2023-03-11T00:22:56;5.47;;;3.50;;
11548;SDS011;61444;59.472;18.306;2023-03-11T00:25:05;9.67;;;3.90;;
11548;SDS011;61444;59.472;18.306;2023-03-11T00:27:14;6.03;;;3.60;;
11548;SDS011;61444;59.472;18.306;2023-03-11T00:29:23;7.40;;;3.77;;
11548;SDS011;61444;59.472;18.306;2023-03-11T00:31:34;5.70;;;3.13;;
11548;SDS011;61444;59.472;18.306;2023-03-11T00:33:42;4.53;;;2.97;;
11548;SDS011;61444;59.472;18.306;2023-03-11T00:35:51;6.47;;;3.20;;
11548;SDS011;61444;59.472;18.306;2023-03-11T00:38:01;6.00;;;2.80;;
11548;SDS011;61444;59.472;18.306;2023-03-11T00:40:11;4.17;;;2.63;;
11548;SDS011;61444;59.472;18.306;2023-03-11T00:42:20;6.13;;;3.20;;
11548;SDS011;61444;59.472;18.306;2023-03-11T00:44:28;6.13;;;2.87;;
11548;SDS011;61444;59.472;18.306;2023-03-11T00:46:39;4.93;;;2.50;;
11548;SDS011;61444;59.472;18.306;2023-03-11T00:48:48;6.67;;;2.70;;
11548;SDS011;61444;59.472;18.306;2023-03-11T00:50:58;5.33;;;2.80;;
11548;SDS011;61444;59.472;18.306;2023-03-11T00:53:06;4.37;;;2.77;;
11548;SDS011;61444;59.472;18.306;2023-03-11T00:55:16;6.83;;;3.03;;
11548;SDS011;61444;59.472;18.306;2023-03-11T00:57:25;5.03;;;2.60;;
11548;SDS011;61444;59.472;18.306;2023-03-11T00:59:34;8.57;;;2.43;;
11548;SDS011;61444;59.472;18.306;2023-03-11T01:01:46;4.50;;;2.57;;
11548;SDS011;61444;59.472;18.306;2023-03-11T01:03:54;5.20;;;2.20;;
11548;SDS011;61444;59.472;18.306;2023-03-11T01:06:04;5.47;;;2.57;;
11548;SDS011;61444;59.472;18.306;2023-03-11T01:08:13;3.53;;;2.00;;
11548;SDS011;61444;59.472;18.306;2023-03-11T01:10:22;7.97;;;2.63;;
11548;SDS011;61444;59.472;18.306;2023-03-11T01:12:31;5.47;;;2.50;;
11548;SDS011;61444;59.472;18.306;2023-03-11T01:14:40;5.10;;;2.50;;
11548;SDS011;61444;59.472;18.306;2023-03-11T01:16:50;4.63;;;2.50;;
11548;SDS011;61444;59.472;18.306;2023-03-11T01:18:59;4.67;;;2.03;;
11548;SDS011;61444;59.472;18.306;2023-03-11T01:21:08;4.50;;;2.20;;
11548;SDS011;61444;59.472;18.306;2023-03-11T01:23:17;4.97;;;2.10;;
11548;SDS011;61444;59.472;18.306;2023-03-11T01:25:26;3.83;;;1.87;;
11548;SDS011;61444;59.472;18.306;2023-03-11T01:27:35;4.67;;;2.30;;
11548;SDS011;61444;59.472;18.306;2023-03-11T01:29:44;4.73;;;2.40;;
11548;SDS011;61444;59.472;18.306;2023-03-11T01:31:54;6.83;;;2.50;;
11548;SDS011;61444;59.472;18.306;2023-03-11T01:34:04;3.63;;;1.70;;
11548;SDS011;61444;59.472;18.306;2023-03-11T01:36:13;3.93;;;2.07;;
11548;SDS011;61444;59.472;18.306;2023-03-11T01:38:22;4.17;;;2.13;;
11548;SDS011;61444;59.472;18.306;2023-03-11T01:40:32;4.03;;;2.20;;
11548;SDS011;61444;59.472;18.306;2023-03-11T01:42:41;5.20;;;2.60;;
11548;SDS011;61444;59.472;18.306;2023-03-11T01:44:50;6.43;;;2.87;;
11548;SDS011;61444;59.472;18.306;2023-03-11T01:49:28;7.07;;;2.37;;
11548;SDS011;61444;59.472;18.306;2023-03-11T01:51:38;5.63;;;2.47;;
11548;SDS011;61444;59.472;18.306;2023-03-11T01:53:48;4.20;;;2.20;;
11548;SDS011;61444;59.472;18.306;2023-03-11T01:55:57;3.53;;;1.90;;
11548;SDS011;61444;59.472;18.306;2023-03-11T01:58:07;5.23;;;2.70;;
11548;SDS011;61444;59.472;18.306;2023-03-11T02:00:17;3.80;;;1.77;;
11548;SDS011;61444;59.472;18.306;2023-03-11T02:02:27;7.00;;;2.37;;
11548;SDS011;61444;59.472;18.306;2023-03-11T02:04:39;5.50;;;2.67;;
11548;SDS011;61444;59.472;18.306;2023-03-11T02:06:48;5.33;;;2.30;;
11548;SDS011;61444;59.472;18.306;2023-03-11T02:08:59;9.13;;;2.53;;
11548;SDS011;61444;59.472;18.306;2023-03-11T02:11:10;5.60;;;2.37;;
11548;SDS011;61444;59.472;18.306;2023-03-11T02:13:19;3.70;;;2.50;;
11548;SDS011;61444;59.472;18.306;2023-03-11T02:15:28;6.50;;;2.80;;
11548;SDS011;61444;59.472;18.306;2023-03-11T02:17:37;5.57;;;2.70;;
11548;SDS011;61444;59.472;18.306;2023-03-11T02:19:53;6.23;;;2.23;;
11548;SDS011;61444;59.472;18.306;2023-03-11T02:22:05;4.77;;;2.50;;
11548;SDS011;61444;59.472;18.306;2023-03-11T02:24:16;4.67;;;2.20;;
11548;SDS011;61444;59.472;18.306;2023-03-11T02:26:29;4.80;;;2.40;;
11548;SDS011;61444;59.472;18.306;2023-03-11T02:28:41;5.10;;;2.27;;
11548;SDS011;61444;59.472;18.306;2023-03-11T02:30:51;6.97;;;2.30;;
11548;SDS011;61444;59.472;18.306;2023-03-11T02:33:00;5.40;;;1.77;;
11548;SDS011;61444;59.472;18.306;2023-03-11T02:35:09;6.80;;;2.10;;
11548;SDS011;61444;59.472;18.306;2023-03-11T02:37:19;4.70;;;1.90;;
11548;SDS011;61444;59.472;18.306;2023-03-11T02:39:29;3.20;;;1.80;;
11548;SDS011;61444;59.472;18.306;2023-03-11T02:41:38;4.37;;;2.23;;
11548;SDS011;61444;59.472;18.306;2023-03-11T02:43:49;4.50;;;2.20;;
11548;SDS011;61444;59.472;18.306;2023-03-11T02:45:57;6.50;;;2.13;;
11548;SDS011;61444;59.472;18.306;2023-03-11T02:48:07;3.70;;;2.10;;
11548;SDS011;61444;59.472;18.306;2023-03-11T02:50:18;4.77;;;2.40;;
11548;SDS011;61444;59.472;18.306;2023-03-11T02:52:27;7.17;;;2.57;;
11548;SDS011;61444;59.472;18.306;2023-03-11T02:54:36;5.50;;;2.33;;
11548;SDS011;61444;59.472;18.306;2023-03-11T02:56:44;7.13;;;2.43;;
11548;SDS011;61444;59.472;18.306;2023-03-11T02:58:54;4.27;;;2.17;;
11548;SDS011;61444;59.472;18.306;2023-03-11T03:01:03;3.10;;;2.00;;
11548;SDS011;61444;59.472;18.306;2023-03-11T03:03:12;5.20;;;2.03;;
11548;SDS011;61444;59.472;18.306;2023-03-11T03:05:21;3.97;;;2.27;;
11548;SDS011;61444;59.472;18.306;2023-03-11T03:07:30;4.00;;;2.23;;
11548;SDS011;61444;59.472;18.306;2023-03-11T03:09:39;2.50;;;1.53;;
11548;SDS011;61444;59.472;18.306;2023-03-11T03:11:49;3.20;;;1.90;;
11548;SDS011;61444;59.472;18.306;2023-03-11T03:13:59;5.10;;;2.13;;
11548;SDS011;61444;59.472;18.306;2023-03-11T03:16:08;5.13;;;1.97;;
11548;SDS011;61444;59.472;18.306;2023-03-11T03:18:16;4.50;;;2.20;;
11548;SDS011;61444;59.472;18.306;2023-03-11T03:20:26;7.23;;;2.00;;
11548;SDS011;61444;59.472;18.306;2023-03-11T03:22:35;5.13;;;2.37;;
11548;SDS011;61444;59.472;18.306;2023-03-11T03:24:43;5.20;;;2.13;;
11548;SDS011;61444;59.472;18.306;2023-03-11T03:26:52;4.80;;;2.00;;
11548;SDS011;61444;59.472;18.306;2023-03-11T03:29:03;4.37;;;2.13;;
11548;SDS011;61444;59.472;18.306;2023-03-11T03:31:12;3.93;;;2.10;;
11548;SDS011;61444;59.472;18.306;2023-03-11T03:33:22;3.23;;;1.90;;
11548;SDS011;61444;59.472;18.306;2023-03-11T03:35:30;3.67;;;1.90;;
11548;SDS011;61444;59.472;18.306;2023-03-11T03:37:39;3.83;;;1.80;;
11548;SDS011;61444;59.472;18.306;2023-03-11T03:39:48;4.83;;;1.60;;
11548;SDS011;61444;59.472;18.306;2023-03-11T03:41:57;4.07;;;1.73;;
11548;SDS011;61444;59.472;18.306;2023-03-11T03:44:07;4.83;;;1.87;;
11548;SDS011;61444;59.472;18.306;2023-03-11T03:46:16;2.87;;;1.50;;
11548;SDS011;61444;59.472;18.306;2023-03-11T03:48:25;3.63;;;1.63;;
11548;SDS011;61444;59.472;18.306;2023-03-11T03:50:34;4.80;;;1.97;;
11548;SDS011;61444;59.472;18.306;2023-03-11T03:52:43;4.20;;;1.90;;
11548;SDS011;61444;59.472;18.306;2023-03-11T03:54:52;3.60;;;1.70;;
11548;SDS011;61444;59.472;18.306;2023-03-11T03:57:00;3.37;;;1.67;;
11548;SDS011;61444;59.472;18.306;2023-03-11T03:59:11;4.33;;;2.10;;
11548;SDS011;61444;59.472;18.306;2023-03-11T04:01:20;4.07;;;1.80;;
11548;SDS011;61444;59.472;18.306;2023-03-11T04:03:29;5.60;;;2.30;;
11548;SDS011;61444;59.472;18.306;2023-03-11T04:05:39;4.77;;;1.83;;
11548;SDS011;61444;59.472;18.306;2023-03-11T04:07:47;2.50;;;1.70;;
11548;SDS011;61444;59.472;18.306;2023-03-11T04:09:56;2.77;;;1.70;;
11548;SDS011;61444;59.472;18.306;2023-03-11T04:12:05;3.43;;;2.23;;
11548;SDS011;61444;59.472;18.306;2023-03-11T04:14:16;3.70;;;1.83;;
11548;SDS011;61444;59.472;18.306;2023-03-11T04:16:25;2.97;;;1.80;;
11548;SDS011;61444;59.472;18.306;2023-03-11T04:18:33;3.93;;;1.87;;
11548;SDS011;61444;59.472;18.306;2023-03-11T04:20:42;4.17;;;1.93;;
11548;SDS011;61444;59.472;18.306;2023-03-11T04:22:51;4.43;;;1.90;;
11548;SDS011;61444;59.472;18.306;2023-03-11T04:25:00;3.53;;;1.80;;
11548;SDS011;61444;59.472;18.306;2023-03-11T04:27:09;3.63;;;1.70;;
11548;SDS011;61444;59.472;18.306;2023-03-11T04:29:20;3.50;;;1.83;;
11548;SDS011;61444;59.472;18.306;2023-03-11T04:31:28;3.37;;;1.70;;
11548;SDS011;61444;59.472;18.306;2023-03-11T04:33:39;3.00;;;1.60;;
11548;SDS011;61444;59.472;18.306;2023-03-11T04:35:48;3.20;;;1.67;;
11548;SDS011;61444;59.472;18.306;2023-03-11T04:37:56;3.43;;;2.10;;
11548;SDS011;61444;59.472;18.306;2023-03-11T04:40:06;3.87;;;1.90;;
11548;SDS011;61444;59.472;18.306;2023-03-11T04:42:16;3.53;;;1.70;;
11548;SDS011;61444;59.472;18.306;2023-03-11T04:44:26;5.13;;;1.63;;
11548;SDS011;61444;59.472;18.306;2023-03-11T04:46:35;2.23;;;1.33;;
11548;SDS011;61444;59.472;18.306;2023-03-11T04:48:44;4.03;;;1.87;;
11548;SDS011;61444;59.472;18.306;2023-03-11T04:50:53;3.77;;;1.80;;
11548;SDS011;61444;59.472;18.306;2023-03-11T04:53:02;3.73;;;1.57;;
11548;SDS011;61444;59.472;18.306;2023-03-11T04:55:10;3.00;;;1.77;;
11548;SDS011;61444;59.472;18.306;2023-03-11T04:57:20;3.30;;;1.90;;
11548;SDS011;61444;59.472;18.306;2023-03-11T04:59:31;3.30;;;1.93;;
11548;SDS011;61444;59.472;18.306;2023-03-11T05:01:39;2.80;;;1.80;;
11548;SDS011;61444;59.472;18.306;2023-03-11T05:03:48;3.50;;;1.50;;
11548;SDS011;61444;59.472;18.306;2023-03-11T05:05:57;4.63;;;1.60;;
11548;SDS011;61444;59.472;18.306;2023-03-11T05:08:06;4.27;;;1.70;;
11548;SDS011;61444;59.472;18.306;2023-03-11T05:10:14;4.53;;;1.97;;
11548;SDS011;61444;59.472;18.306;2023-03-11T05:12:27;4.10;;;2.10;;
11548;SDS011;61444;59.472;18.306;2023-03-11T05:14:38;3.50;;;1.90;;
11548;SDS011;61444;59.472;18.306;2023-03-11T05:16:47;3.10;;;1.60;;
11548;SDS011;61444;59.472;18.306;2023-03-11T05:18:56;3.07;;;1.73;;
11548;SDS011;61444;59.472;18.306;2023-03-11T05:21:05;5.70;;;2.17;;
11548;SDS011;61444;59.472;18.306;2023-03-11T05:23:14;3.27;;;1.70;;
11548;SDS011;61444;59.472;18.306;2023-03-11T05:25:23;3.70;;;1.97;;
11548;SDS011;61444;59.472;18.306;2023-03-11T05:27:31;2.53;;;1.70;;
11548;SDS011;61444;59.472;18.306;2023-03-11T05:29:43;2.20;;;1.47;;
11548;SDS011;61444;59.472;18.306;2023-03-11T05:31:52;6.67;;;1.90;;
11548;SDS011;61444;59.472;18.306;2023-03-11T05:34:01;2.77;;;1.80;;
11548;SDS011;61444;59.472;18.306;2023-03-11T05:36:10;3.10;;;1.87;;
11548;SDS011;61444;59.472;18.306;2023-03-11T05:38:18;4.40;;;1.90;;
11548;SDS011;61444;59.472;18.306;2023-03-11T05:40:29;5.70;;;1.67;;
11548;SDS011;61444;59.472;18.306;2023-03-11T05:42:38;6.87;;;2.00;;
11548;SDS011;61444;59.472;18.306;2023-03-11T05:44:49;3.93;;;1.77;;
11548;SDS011;61444;59.472;18.306;2023-03-11T05:46:58;3.27;;;1.63;;
11548;SDS011;61444;59.472;18.306;2023-03-11T05:49:08;5.37;;;2.27;;
11548;SDS011;61444;59.472;18.306;2023-03-11T05:51:16;3.73;;;1.97;;
11548;SDS011;61444;59.472;18.306;2023-03-11T05:53:25;4.70;;;2.07;;
11548;SDS011;61444;59.472;18.306;2023-03-11T05:55:34;5.07;;;1.97;;
11548;SDS011;61444;59.472;18.306;2023-03-11T05:57:43;5.00;;;2.10;;
11548;SDS011;61444;59.472;18.306;2023-03-11T05:59:54;3.40;;;1.97;;
11548;SDS011;61444;59.472;18.306;2023-03-11T06:02:03;2.40;;;1.40;;
11548;SDS011;61444;59.472;18.306;2023-03-11T06:04:12;3.67;;;1.80;;
11548;SDS011;61444;59.472;18.306;2023-03-11T06:06:21;4.00;;;1.73;;
11548;SDS011;61444;59.472;18.306;2023-03-11T06:08:30;9.00;;;2.43;;
11548;SDS011;61444;59.472;18.306;2023-03-11T06:10:41;4.37;;;2.23;;
11548;SDS011;61444;59.472;18.306;2023-03-11T06:12:54;3.70;;;2.33;;
11548;SDS011;61444;59.472;18.306;2023-03-11T06:15:06;4.70;;;1.93;;
11548;SDS011;61444;59.472;18.306;2023-03-11T06:17:15;5.47;;;2.20;;
11548;SDS011;61444;59.472;18.306;2023-03-11T06:19:25;5.00;;;2.33;;
11548;SDS011;61444;59.472;18.306;2023-03-11T06:21:34;4.17;;;2.00;;
11548;SDS011;61444;59.472;18.306;2023-03-11T06:23:43;3.03;;;1.80;;
11548;SDS011;61444;59.472;18.306;2023-03-11T06:25:55;3.30;;;1.57;;
11548;SDS011;61444;59.472;18.306;2023-03-11T06:28:04;3.10;;;2.00;;
11548;SDS011;61444;59.472;18.306;2023-03-11T06:32:25;5.13;;;2.30;;
11548;SDS011;61444;59.472;18.306;2023-03-11T06:34:35;4.10;;;1.83;;
11548;SDS011;61444;59.472;18.306;2023-03-11T06:36:44;3.80;;;2.27;;
11548;SDS011;61444;59.472;18.306;2023-03-11T06:38:53;5.03;;;2.90;;
11548;SDS011;61444;59.472;18.306;2023-03-11T06:41:03;7.97;;;3.40;;
11548;SDS011;61444;59.472;18.306;2023-03-11T06:43:12;6.93;;;3.50;;
11548;SDS011;61444;59.472;18.306;2023-03-11T06:45:21;8.97;;;3.60;;
11548;SDS011;61444;59.472;18.306;2023-03-11T06:47:32;6.80;;;3.17;;
11548;SDS011;61444;59.472;18.306;2023-03-11T06:49:41;7.30;;;3.73;;
11548;SDS011;61444;59.472;18.306;2023-03-11T06:51:50;7.63;;;3.87;;
11548;SDS011;61444;59.472;18.306;2023-03-11T06:53:59;6.70;;;2.83;;
11548;SDS011;61444;59.472;18.306;2023-03-11T06:56:08;5.03;;;2.53;;
11548;SDS011;61444;59.472;18.306;2023-03-11T06:58:18;3.73;;;2.17;;
11548;SDS011;61444;59.472;18.306;2023-03-11T07:00:27;4.30;;;2.43;;
11548;SDS011;61444;59.472;18.306;2023-03-11T07:02:38;4.93;;;2.97;;
11548;SDS011;61444;59.472;18.306;2023-03-11T07:04:48;6.67;;;3.27;;
11548;SDS011;61444;59.472;18.306;2023-03-11T07:06:57;4.60;;;2.40;;
11548;SDS011;61444;59.472;18.306;2023-03-11T07:09:06;5.77;;;3.30;;
11548;SDS011;61444;59.472;18.306;2023-03-11T07:11:16;5.50;;;3.20;;
11548;SDS011;61444;59.472;18.306;2023-03-11T07:13:25;6.03;;;2.97;;
11548;SDS011;61444;59.472;18.306;2023-03-11T07:15:34;4.87;;;3.10;;
11548;SDS011;61444;59.472;18.306;2023-03-11T07:17:44;5.30;;;2.37;;
11548;SDS011;61444;59.472;18.306;2023-03-11T07:19:53;4.63;;;2.70;;
11548;SDS011;61444;59.472;18.306;2023-03-11T07:22:01;6.50;;;2.83;;
11548;SDS011;61444;59.472;18.306;2023-03-11T07:24:11;5.53;;;3.17;;
11548;SDS011;61444;59.472;18.306;2023-03-11T07:26:20;3.50;;;2.40;;
11548;SDS011;61444;59.472;18.306;2023-03-11T07:28:29;4.90;;;2.80;;
11548;SDS011;61444;59.472;18.306;2023-03-11T07:30:38;4.93;;;2.33;;
11548;SDS011;61444;59.472;18.306;2023-03-11T07:32:51;4.77;;;2.13;;
11548;SDS011;61444;59.472;18.306;2023-03-11T07:35:00;6.30;;;2.50;;
11548;SDS011;61444;59.472;18.306;2023-03-11T07:37:09;4.67;;;2.90;;
11548;SDS011;61444;59.472;18.306;2023-03-11T07:39:17;4.40;;;2.80;;
11548;SDS011;61444;59.472;18.306;2023-03-11T07:41:27;4.23;;;2.40;;
11548;SDS011;61444;59.472;18.306;2023-03-11T07:43:36;3.10;;;2.13;;
11548;SDS011;61444;59.472;18.306;2023-03-11T07:45:45;4.30;;;2.57;;
11548;SDS011;61444;59.472;18.306;2023-03-11T07:47:57;4.00;;;2.33;;
11548;SDS011;61444;59.472;18.306;2023-03-11T07:50:06;5.20;;;2.33;;
11548;SDS011;61444;59.472;18.306;2023-03-11T07:52:15;3.80;;;2.03;;
11548;SDS011;61444;59.472;18.306;2023-03-11T07:54:24;3.73;;;2.10;;
11548;SDS011;61444;59.472;18.306;2023-03-11T07:56:33;5.07;;;2.70;;
11548;SDS011;61444;59.472;18.306;2023-03-11T07:58:42;3.07;;;1.90;;
11548;SDS011;61444;59.472;18.306;2023-03-11T08:00:51;3.60;;;2.33;;
11548;SDS011;61444;59.472;18.306;2023-03-11T08:03:03;4.77;;;2.50;;
11548;SDS011;61444;59.472;18.306;2023-03-11T08:05:12;4.30;;;3.07;;
11548;SDS011;61444;59.472;18.306;2023-03-11T08:07:21;5.40;;;2.60;;
11548;SDS011;61444;59.472;18.306;2023-03-11T08:09:30;7.57;;;3.30;;
11548;SDS011;61444;59.472;18.306;2023-03-11T08:11:39;5.20;;;3.03;;
11548;SDS011;61444;59.472;18.306;2023-03-11T08:13:48;4.63;;;2.60;;
11548;SDS011;61444;59.472;18.306;2023-03-11T08:15:57;4.77;;;3.03;;
11548;SDS011;61444;59.472;18.306;2023-03-11T08:18:07;4.63;;;2.93;;
11548;SDS011;61444;59.472;18.306;2023-03-11T08:20:16;3.67;;;2.40;;
11548;SDS011;61444;59.472;18.306;2023-03-11T08:22:25;5.17;;;2.73;;
11548;SDS011;61444;59.472;18.306;2023-03-11T08:24:34;4.03;;;2.80;;
11548;SDS011;61444;59.472;18.306;2023-03-11T08:26:43;4.43;;;2.40;;
11548;SDS011;61444;59.472;18.306;2023-03-11T08:28:52;7.10;;;2.80;;
11548;SDS011;61444;59.472;18.306;2023-03-11T08:31:01;3.07;;;2.13;;
11548;SDS011;61444;59.472;18.306;2023-03-11T08:33:12;6.03;;;2.73;;
11548;SDS011;61444;59.472;18.306;2023-03-11T08:35:21;4.30;;;2.47;;
11548;SDS011;61444;59.472;18.306;2023-03-11T08:37:31;4.00;;;2.10;;
11548;SDS011;61444;59.472;18.306;2023-03-11T08:39:41;3.60;;;2.20;;
11548;SDS011;61444;59.472;18.306;2023-03-11T08:41:50;2.83;;;1.50;;
11548;SDS011;61444;59.472;18.306;2023-03-11T08:43:58;6.70;;;2.30;;
11548;SDS011;61444;59.472;18.306;2023-03-11T08:46:07;6.70;;;2.20;;
11548;SDS011;61444;59.472;18.306;2023-03-11T08:48:18;2.33;;;1.97;;
11548;SDS011;61444;59.472;18.306;2023-03-11T08:50:27;3.03;;;2.17;;
11548;SDS011;61444;59.472;18.306;2023-03-11T08:52:37;5.97;;;2.60;;
11548;SDS011;61444;59.472;18.306;2023-03-11T08:54:46;4.07;;;2.20;;
11548;SDS011;61444;59.472;18.306;2023-03-11T08:56:55;5.67;;;2.37;;
11548;SDS011;61444;59.472;18.306;2023-03-11T08:59:08;4.77;;;2.67;;
11548;SDS011;61444;59.472;18.306;2023-03-11T09:01:17;5.23;;;2.33;;
11548;SDS011;61444;59.472;18.306;2023-03-11T09:03:29;8.70;;;2.93;;
11548;SDS011;61444;59.472;18.306;2023-03-11T09:05:38;4.23;;;2.17;;
11548;SDS011;61444;59.472;18.306;2023-03-11T09:07:47;4.73;;;2.57;;
11548;SDS011;61444;59.472;18.306;2023-03-11T09:09:56;4.97;;;2.20;;
11548;SDS011;61444;59.472;18.306;2023-03-11T09:12:05;5.70;;;2.23;;
11548;SDS011;61444;59.472;18.306;2023-03-11T09:14:14;3.87;;;1.93;;
11548;SDS011;61444;59.472;18.306;2023-03-11T09:16:23;5.97;;;2.40;;
11548;SDS011;61444;59.472;18.306;2023-03-11T09:18:34;3.40;;;1.87;;
11548;SDS011;61444;59.472;18.306;2023-03-11T09:20:43;3.27;;;1.50;;
11548;SDS011;61444;59.472;18.306;2023-03-11T09:22:52;3.03;;;1.93;;
11548;SDS011;61444;59.472;18.306;2023-03-11T09:25:01;3.40;;;1.80;;
11548;SDS011;61444;59.472;18.306;2023-03-11T09:27:10;3.27;;;1.47;;
11548;SDS011;61444;59.472;18.306;2023-03-11T09:29:20;3.60;;;1.80;;
11548;SDS011;61444;59.472;18.306;2023-03-11T09:31:30;2.73;;;1.97;;
11548;SDS011;61444;59.472;18.306;2023-03-11T09:33:41;2.10;;;1.50;;
11548;SDS011;61444;59.472;18.306;2023-03-11T09:35:49;2.83;;;1.50;;
11548;SDS011;61444;59.472;18.306;2023-03-11T09:37:59;2.90;;;1.90;;
11548;SDS011;61444;59.472;18.306;2023-03-11T09:40:09;3.67;;;1.87;;
11548;SDS011;61444;59.472;18.306;2023-03-11T09:42:19;2.97;;;2.00;;
11548;SDS011;61444;59.472;18.306;2023-03-11T09:44:29;2.70;;;1.67;;
11548;SDS011;61444;59.472;18.306;2023-03-11T09:46:49;2.40;;;1.40;;
11548;SDS011;61444;59.472;18.306;2023-03-11T09:49:07;2.30;;;1.40;;
11548;SDS011;61444;59.472;18.306;2023-03-11T09:51:18;2.43;;;1.50;;
11548;SDS011;61444;59.472;18.306;2023-03-11T09:53:28;2.63;;;1.50;;
11548;SDS011;61444;59.472;18.306;2023-03-11T09:55:41;2.73;;;1.27;;
11548;SDS011;61444;59.472;18.306;2023-03-11T09:57:50;2.73;;;1.37;;
11548;SDS011;61444;59.472;18.306;2023-03-11T10:00:00;4.10;;;1.67;;
11548;SDS011;61444;59.472;18.306;2023-03-11T10:02:10;2.13;;;1.30;;
11548;SDS011;61444;59.472;18.306;2023-03-11T10:04:24;3.00;;;1.40;;
11548;SDS011;61444;59.472;18.306;2023-03-11T10:06:34;2.33;;;1.47;;
11548;SDS011;61444;59.472;18.306;2023-03-11T10:08:44;1.50;;;1.17;;
11548;SDS011;61444;59.472;18.306;2023-03-11T10:10:54;2.07;;;1.37;;
11548;SDS011;61444;59.472;18.306;2023-03-11T10:13:08;2.07;;;1.60;;
11548;SDS011;61444;59.472;18.306;2023-03-11T10:15:21;4.47;;;1.50;;
11548;SDS011;61444;59.472;18.306;2023-03-11T10:17:45;2.80;;;1.50;;
11548;SDS011;61444;59.472;18.306;2023-03-11T10:19:59;2.47;;;1.53;;
11548;SDS011;61444;59.472;18.306;2023-03-11T10:22:13;2.80;;;1.70;;
11548;SDS011;61444;59.472;18.306;2023-03-11T10:24:32;1.83;;;1.10;;
11548;SDS011;61444;59.472;18.306;2023-03-11T10:26:43;2.87;;;1.63;;
11548;SDS011;61444;59.472;18.306;2023-03-11T10:28:55;3.33;;;1.67;;
11548;SDS011;61444;59.472;18.306;2023-03-11T10:31:07;2.87;;;1.30;;
11548;SDS011;61444;59.472;18.306;2023-03-11T10:33:25;3.13;;;1.73;;
11548;SDS011;61444;59.472;18.306;2023-03-11T10:35:39;3.50;;;1.60;;
11548;SDS011;61444;59.472;18.306;2023-03-11T10:37:51;3.70;;;1.60;;
11548;SDS011;61444;59.472;18.306;2023-03-11T10:40:03;2.00;;;0.90;;
11548;SDS011;61444;59.472;18.306;2023-03-11T10:42:13;2.40;;;1.33;;
11548;SDS011;61444;59.472;18.306;2023-03-11T10:44:25;2.67;;;1.40;;
11548;SDS011;61444;59.472;18.306;2023-03-11T10:46:35;1.63;;;1.10;;
11548;SDS011;61444;59.472;18.306;2023-03-11T10:48:44;3.47;;;1.50;;
11548;SDS011;61444;59.472;18.306;2023-03-11T10:50:56;2.70;;;1.70;;
11548;SDS011;61444;59.472;18.306;2023-03-11T10:53:06;4.30;;;2.00;;
11548;SDS011;61444;59.472;18.306;2023-03-11T10:55:16;3.00;;;2.10;;
11548;SDS011;61444;59.472;18.306;2023-03-11T10:57:26;1.37;;;1.07;;
11548;SDS011;61444;59.472;18.306;2023-03-11T10:59:44;3.00;;;1.80;;
11548;SDS011;61444;59.472;18.306;2023-03-11T11:01:54;2.73;;;2.00;;
11548;SDS011;61444;59.472;18.306;2023-03-11T11:04:10;3.27;;;2.00;;
11548;SDS011;61444;59.472;18.306;2023-03-11T11:06:33;3.07;;;2.00;;
11548;SDS011;61444;59.472;18.306;2023-03-11T11:08:43;3.13;;;1.90;;
11548;SDS011;61444;59.472;18.306;2023-03-11T11:10:53;2.90;;;2.00;;
11548;SDS011;61444;59.472;18.306;2023-03-11T11:13:16;3.20;;;1.70;;
11548;SDS011;61444;59.472;18.306;2023-03-11T11:15:26;4.67;;;1.83;;
11548;SDS011;61444;59.472;18.306;2023-03-11T11:17:35;2.80;;;1.70;;
11548;SDS011;61444;59.472;18.306;2023-03-11T11:19:46;1.17;;;0.80;;
11548;SDS011;61444;59.472;18.306;2023-03-11T11:21:57;2.07;;;1.30;;
11548;SDS011;61444;59.472;18.306;2023-03-11T11:24:14;2.60;;;1.30;;
11548;SDS011;61444;59.472;18.306;2023-03-11T11:26:26;2.83;;;1.27;;
11548;SDS011;61444;59.472;18.306;2023-03-11T11:28:34;2.33;;;1.30;;
11548;SDS011;61444;59.472;18.306;2023-03-11T11:30:51;2.33;;;1.40;;
11548;SDS011;61444;59.472;18.306;2023-03-11T11:33:18;3.40;;;1.40;;
11548;SDS011;61444;59.472;18.306;2023-03-11T11:35:29;4.23;;;1.67;;
11548;SDS011;61444;59.472;18.306;2023-03-11T11:37:40;2.50;;;1.70;;
11548;SDS011;61444;59.472;18.306;2023-03-11T11:39:49;3.33;;;1.57;;
11548;SDS011;61444;59.472;18.306;2023-03-11T11:42:00;1.90;;;1.00;;
11548;SDS011;61444;59.472;18.306;2023-03-11T11:44:09;2.33;;;1.50;;
11548;SDS011;61444;59.472;18.306;2023-03-11T11:46:23;2.80;;;1.20;;
11548;SDS011;61444;59.472;18.306;2023-03-11T11:48:33;2.87;;;1.67;;
11548;SDS011;61444;59.472;18.306;2023-03-11T11:50:46;3.73;;;1.50;;
11548;SDS011;61444;59.472;18.306;2023-03-11T11:53:00;2.27;;;1.20;;
11548;SDS011;61444;59.472;18.306;2023-03-11T11:55:16;3.70;;;1.60;;
11548;SDS011;61444;59.472;18.306;2023-03-11T11:57:25;2.63;;;1.50;;
11548;SDS011;61444;59.472;18.306;2023-03-11T11:59:34;3.67;;;1.80;;
11548;SDS011;61444;59.472;18.306;2023-03-11T12:01:46;2.93;;;1.60;;
11548;SDS011;61444;59.472;18.306;2023-03-11T12:06:23;2.90;;;1.60;;
11548;SDS011;61444;59.472;18.306;2023-03-11T12:08:36;3.20;;;1.50;;
11548;SDS011;61444;59.472;18.306;2023-03-11T12:10:48;2.23;;;1.40;;
11548;SDS011;61444;59.472;18.306;2023-03-11T12:13:11;2.53;;;1.50;;
11548;SDS011;61444;59.472;18.306;2023-03-11T12:15:23;1.83;;;1.37;;
11548;SDS011;61444;59.472;18.306;2023-03-11T12:17:34;2.63;;;1.13;;
11548;SDS011;61444;59.472;18.306;2023-03-11T12:19:47;2.20;;;1.20;;
11548;SDS011;61444;59.472;18.306;2023-03-11T12:22:09;1.60;;;1.30;;
11548;SDS011;61444;59.472;18.306;2023-03-11T12:24:30;2.30;;;1.30;;
11548;SDS011;61444;59.472;18.306;2023-03-11T12:26:43;2.07;;;1.50;;
11548;SDS011;61444;59.472;18.306;2023-03-11T12:28:53;2.53;;;1.50;;
11548;SDS011;61444;59.472;18.306;2023-03-11T12:31:06;4.43;;;1.33;;
11548;SDS011;61444;59.472;18.306;2023-03-11T12:33:16;3.33;;;1.30;;
11548;SDS011;61444;59.472;18.306;2023-03-11T12:35:26;2.00;;;1.13;;
11548;SDS011;61444;59.472;18.306;2023-03-11T12:37:36;2.07;;;1.40;;
11548;SDS011;61444;59.472;18.306;2023-03-11T12:39:46;2.23;;;1.40;;
11548;SDS011;61444;59.472;18.306;2023-03-11T12:44:28;1.30;;;1.00;;
11548;SDS011;61444;59.472;18.306;2023-03-11T12:49:11;1.83;;;1.20;;
11548;SDS011;61444;59.472;18.306;2023-03-11T12:51:38;3.90;;;1.17;;
11548;SDS011;61444;59.472;18.306;2023-03-11T12:53:48;4.27;;;1.13;;
11548;SDS011;61444;59.472;18.306;2023-03-11T12:56:01;1.77;;;1.20;;
11548;SDS011;61444;59.472;18.306;2023-03-11T12:58:22;2.27;;;1.23;;
11548;SDS011;61444;59.472;18.306;2023-03-11T13:00:39;1.67;;;0.97;;
11548;SDS011;61444;59.472;18.306;2023-03-11T13:05:17;1.50;;;1.10;;
11548;SDS011;61444;59.472;18.306;2023-03-11T13:07:36;2.90;;;1.80;;